createdAt,value
2023-01-25T00:00:45.399Z,0.32
2023-01-25T00:03:47.924Z,0.23
2023-01-25T00:06:51.080Z,0.19
2023-01-25T00:09:53.613Z,0.17
2023-01-25T00:12:57.073Z,0.16
2023-01-25T00:16:04.410Z,0.19
2023-01-25T00:19:08.046Z,0.09
2023-01-25T00:22:10.600Z,0.15
2023-01-25T00:25:13.150Z,0.15
2023-01-25T00:28:15.669Z,0.10
2023-01-25T00:31:35.438Z,0.15
2023-01-25T00:34:45.851Z,0.13
2023-01-25T00:37:50.130Z,0.19
2023-01-25T00:40:53.761Z,0.30
2023-01-25T00:43:56.464Z,0.28
2023-01-25T00:46:59.006Z,0.30
2023-01-25T00:50:03.021Z,0.35
2023-01-25T00:53:05.692Z,0.27
2023-01-25T00:56:08.255Z,0.25
2023-01-25T00:59:11.784Z,0.18
2023-01-25T01:02:14.603Z,0.17
2023-01-25T01:05:17.253Z,0.10
2023-01-25T01:08:19.808Z,0.05
2023-01-25T01:11:22.338Z,0.04
2023-01-25T01:14:24.905Z,-0.09
2023-01-25T01:17:27.445Z,0.07
2023-01-25T01:20:30.043Z,0.25
2023-01-25T01:23:32.874Z,0.27
2023-01-25T01:26:35.475Z,0.33
2023-01-25T01:29:37.974Z,0.42
2023-01-25T01:32:40.951Z,0.40
2023-01-25T01:35:46.975Z,0.43
2023-01-25T01:38:49.773Z,0.42
2023-01-25T01:41:52.304Z,0.51
2023-01-25T01:44:56.110Z,0.54
2023-01-25T01:48:00.082Z,0.56
2023-01-25T01:51:12.003Z,0.52
2023-01-25T01:54:17.050Z,0.56
2023-01-25T01:57:26.309Z,0.59
2023-01-25T02:00:33.294Z,0.64
2023-01-25T02:03:37.542Z,0.57
2023-01-25T02:06:55.554Z,0.62
2023-01-25T02:09:59.234Z,0.54
2023-01-25T02:13:01.858Z,0.47
2023-01-25T02:16:05.131Z,0.45
2023-01-25T02:19:08.400Z,0.47
2023-01-25T02:22:13.583Z,0.49
2023-01-25T02:25:17.931Z,0.45
2023-01-25T02:28:35.568Z,0.44
2023-01-25T02:31:38.165Z,0.37
2023-01-25T02:34:40.751Z,0.31
2023-01-25T02:37:44.716Z,0.31
2023-01-25T02:40:58.035Z,0.28
2023-01-25T02:44:04.875Z,0.18
2023-01-25T02:47:07.392Z,0.12
2023-01-25T02:50:10.729Z,0.06
2023-01-25T02:53:13.283Z,-0.06
2023-01-25T02:56:16.511Z,-0.08
2023-01-25T02:59:19.273Z,-0.12
2023-01-25T03:02:26.622Z,-0.20
2023-01-25T03:05:29.128Z,-0.21
2023-01-25T03:08:31.713Z,-0.25
2023-01-25T03:11:34.505Z,-0.19
2023-01-25T03:14:37.725Z,-0.19
2023-01-25T03:17:40.364Z,-0.06
2023-01-25T03:20:42.998Z,0.01
2023-01-25T03:23:46.721Z,0.05
2023-01-25T03:27:12.035Z,0.07
2023-01-25T03:30:19.489Z,-0.06
2023-01-25T03:33:22.787Z,-0.04
2023-01-25T03:36:26.001Z,0.01
2023-01-25T03:39:29.201Z,0.05
2023-01-25T03:42:31.908Z,0.03
2023-01-25T03:45:34.607Z,0.11
2023-01-25T03:48:37.468Z,0.03
2023-01-25T03:51:40.734Z,0.09
2023-01-25T03:54:43.481Z,0.07
2023-01-25T03:57:49.207Z,0.03
2023-01-25T04:00:55.596Z,-0.02
2023-01-25T04:03:58.277Z,-0.02
2023-01-25T04:07:01.041Z,-0.05
2023-01-25T04:10:06.102Z,-0.08
2023-01-25T04:13:10.265Z,-0.03
2023-01-25T04:16:12.906Z,-0.06
2023-01-25T04:19:33.763Z,-0.04
2023-01-25T04:22:38.244Z,-0.06
2023-01-25T04:25:42.219Z,-0.07
2023-01-25T04:28:48.632Z,-0.06
2023-01-25T04:31:51.993Z,-0.08
2023-01-25T04:34:54.733Z,-0.09
2023-01-25T04:38:00.132Z,-0.12
2023-01-25T04:41:10.251Z,-0.16
2023-01-25T04:44:13.057Z,-0.12
2023-01-25T04:47:17.216Z,-0.13
2023-01-25T04:50:19.784Z,-0.15
2023-01-25T04:53:22.555Z,-0.14
2023-01-25T04:56:26.050Z,-0.17
2023-01-25T04:59:31.362Z,-0.21
2023-01-25T05:02:34.020Z,-0.24
2023-01-25T05:05:36.694Z,-0.20
2023-01-25T05:08:44.160Z,-0.20
2023-01-25T05:11:46.872Z,-0.28
2023-01-25T05:15:00.931Z,-0.38
2023-01-25T05:18:04.315Z,-0.39
2023-01-25T05:21:31.839Z,-0.43
2023-01-25T05:24:35.739Z,-0.36
2023-01-25T05:27:42.165Z,-0.40
2023-01-25T05:31:07.912Z,-0.52
2023-01-25T05:34:11.256Z,-0.60
2023-01-25T05:37:15.676Z,-0.62
2023-01-25T05:40:20.362Z,-0.69
2023-01-25T05:43:24.538Z,-0.69
2023-01-25T05:46:28.744Z,-0.67
2023-01-25T05:49:32.692Z,-0.65
2023-01-25T05:52:35.948Z,-0.67
2023-01-25T05:55:38.727Z,-0.67
2023-01-25T05:58:45.341Z,-0.71
2023-01-25T06:01:48.273Z,-0.72
2023-01-25T06:04:52.769Z,-0.82
2023-01-25T06:07:55.586Z,-0.85
2023-01-25T06:11:07.340Z,-0.91
2023-01-25T06:14:10.148Z,-0.96
2023-01-25T06:17:14.132Z,-1.00
2023-01-25T06:20:35.386Z,-1.04
2023-01-25T06:23:41.369Z,-0.98
2023-01-25T06:26:44.620Z,-0.93
2023-01-25T06:29:47.254Z,-0.84
2023-01-25T06:32:50.893Z,-0.85
2023-01-25T06:35:53.515Z,-0.76
2023-01-25T06:38:56.176Z,-0.74
2023-01-25T06:41:58.754Z,-0.75
2023-01-25T06:45:01.731Z,-0.78
2023-01-25T06:48:04.981Z,-0.81
2023-01-25T06:51:09.757Z,-0.74
2023-01-25T06:54:12.410Z,-0.75
2023-01-25T06:57:14.980Z,-0.68
2023-01-25T07:00:18.220Z,-0.59
2023-01-25T07:03:21.300Z,-0.48
2023-01-25T07:06:25.274Z,-0.58
2023-01-25T07:09:28.322Z,-0.52
2023-01-25T07:12:31.846Z,-0.38
2023-01-25T07:15:35.102Z,-0.35
2023-01-25T07:18:38.353Z,-0.34
2023-01-25T07:21:41.078Z,-0.38
2023-01-25T07:24:50.178Z,-0.41
2023-01-25T07:27:54.435Z,-0.31
2023-01-25T07:30:57.416Z,-0.31
2023-01-25T07:34:00.706Z,-0.30
2023-01-25T07:37:03.343Z,-0.28
2023-01-25T07:40:07.070Z,-0.17
2023-01-25T07:43:09.890Z,-0.09
2023-01-25T07:46:14.286Z,0.06
2023-01-25T07:49:17.134Z,0.10
2023-01-25T07:52:19.806Z,0.11
2023-01-25T07:55:22.962Z,0.01
2023-01-25T07:58:26.093Z,0.12
2023-01-25T08:01:31.332Z,0.14
2023-01-25T08:04:34.142Z,0.21
2023-01-25T08:07:37.468Z,0.28
2023-01-25T08:10:40.202Z,0.31
2023-01-25T08:13:50.093Z,0.36
2023-01-25T08:16:53.638Z,0.39
2023-01-25T08:19:56.451Z,0.43
2023-01-25T08:22:59.084Z,0.53
2023-01-25T08:26:03.488Z,0.50
2023-01-25T08:29:06.872Z,0.61
2023-01-25T08:32:10.055Z,0.54
2023-01-25T08:35:12.790Z,0.68
2023-01-25T08:38:15.850Z,0.62
2023-01-25T08:41:21.996Z,0.71
2023-01-25T08:44:26.257Z,0.86
2023-01-25T08:47:28.875Z,0.85
2023-01-25T08:50:32.411Z,0.86
2023-01-25T08:53:35.682Z,0.87
2023-01-25T08:56:42.740Z,0.92
2023-01-25T08:59:45.451Z,0.87
2023-01-25T09:02:48.757Z,0.81
2023-01-25T09:05:51.684Z,0.87
2023-01-25T09:08:54.738Z,0.81
2023-01-25T09:11:57.420Z,0.80
2023-01-25T09:15:00.235Z,0.89
2023-01-25T09:18:03.258Z,1.04
2023-01-25T09:21:12.994Z,1.07
2023-01-25T09:24:16.028Z,1.13
2023-01-25T09:27:19.667Z,1.04
2023-01-25T09:30:33.499Z,0.85
2023-01-25T09:33:41.558Z,0.81
2023-01-25T09:36:44.715Z,0.95
2023-01-25T09:39:47.213Z,1.11
2023-01-25T09:43:14.610Z,1.16
2023-01-25T09:46:42.650Z,1.19
2023-01-25T09:50:05.745Z,0.94
2023-01-25T09:53:15.499Z,0.98
2023-01-25T09:56:28.227Z,1.03
2023-01-25T09:59:31.403Z,1.17
2023-01-25T10:02:55.042Z,0.91
2023-01-25T10:05:59.517Z,0.89
2023-01-25T10:09:20.070Z,0.93
2023-01-25T10:12:24.990Z,0.98
2023-01-25T10:15:33.480Z,0.96
2023-01-25T10:19:11.307Z,1.00
2023-01-25T10:22:22.160Z,0.91
2023-01-25T10:25:30.303Z,1.07
2023-01-25T10:28:48.211Z,1.19
2023-01-25T10:31:54.056Z,1.20
2023-01-25T10:35:02.279Z,1.28
2023-01-25T10:38:18.093Z,1.33
2023-01-25T10:41:33.252Z,1.39
2023-01-25T10:44:38.041Z,1.34
2023-01-25T10:47:43.524Z,1.49
2023-01-25T10:50:49.138Z,1.45
2023-01-25T10:54:02.774Z,1.36
2023-01-25T10:57:09.892Z,1.39
2023-01-25T11:00:23.775Z,1.41
2023-01-25T11:03:35.662Z,1.50
2023-01-25T11:06:40.960Z,1.55
2023-01-25T11:09:44.231Z,1.65
2023-01-25T11:12:47.100Z,1.60
2023-01-25T11:15:57.244Z,1.64
2023-01-25T11:19:01.319Z,1.70
2023-01-25T11:22:19.174Z,1.62
2023-01-25T11:25:24.967Z,1.79
2023-01-25T11:28:27.811Z,1.82
2023-01-25T11:31:30.511Z,1.81
2023-01-25T11:34:33.337Z,1.76
2023-01-25T11:37:54.584Z,1.76
2023-01-25T11:41:24.854Z,1.95
2023-01-25T11:44:50.294Z,1.88
2023-01-25T11:48:11.133Z,1.84
2023-01-25T11:51:22.653Z,1.86
2023-01-25T11:54:34.488Z,1.79
2023-01-25T11:57:58.852Z,1.86
2023-01-25T12:01:10.346Z,1.91
2023-01-25T12:04:36.545Z,2.10
2023-01-25T12:08:03.947Z,2.29
2023-01-25T12:11:07.142Z,2.27
2023-01-25T12:14:27.708Z,2.32
2023-01-25T12:17:42.020Z,2.43
2023-01-25T12:20:53.495Z,2.24
2023-01-25T12:24:14.810Z,2.46
2023-01-25T12:27:18.076Z,2.39
2023-01-25T12:30:27.597Z,2.27
2023-01-25T12:33:36.748Z,2.30
2023-01-25T12:36:50.188Z,2.34
2023-01-25T12:39:59.021Z,2.36
2023-01-25T12:43:03.012Z,2.37
2023-01-25T12:46:29.684Z,2.36
2023-01-25T12:49:45.842Z,2.67
2023-01-25T12:53:18.876Z,2.37
2023-01-25T12:56:27.392Z,2.49
2023-01-25T12:59:49.251Z,2.27
2023-01-25T13:03:31.453Z,2.26
2023-01-25T13:06:48.119Z,2.31
2023-01-25T13:10:00.204Z,2.19
2023-01-25T13:13:04.385Z,2.33
2023-01-25T13:16:30.704Z,2.24
2023-01-25T13:19:33.757Z,2.40
2023-01-25T13:22:46.134Z,2.40
2023-01-25T13:25:49.090Z,2.10
2023-01-25T13:28:56.585Z,2.12
2023-01-25T13:32:00.505Z,2.11
2023-01-25T13:35:03.901Z,1.95
2023-01-25T13:38:32.952Z,2.00
2023-01-25T13:41:35.756Z,1.95
2023-01-25T13:44:44.171Z,1.95
2023-01-25T13:48:07.121Z,1.92
2023-01-25T13:51:14.544Z,1.85
2023-01-25T13:54:18.233Z,1.74
2023-01-25T13:57:27.017Z,1.59
2023-01-25T14:00:30.562Z,1.52
2023-01-25T14:03:47.893Z,1.40
2023-01-25T14:06:59.950Z,1.44
2023-01-25T14:10:08.708Z,1.39
2023-01-25T14:13:14.935Z,1.23
2023-01-25T14:16:18.493Z,1.25
2023-01-25T14:19:22.529Z,1.17
2023-01-25T14:22:31.048Z,1.16
2023-01-25T14:25:34.102Z,1.01
2023-01-25T14:28:37.282Z,1.05
2023-01-25T14:31:40.417Z,0.85
2023-01-25T14:34:43.361Z,0.79
2023-01-25T14:37:46.814Z,0.79
2023-01-25T14:40:50.938Z,0.79
2023-01-25T14:44:05.052Z,0.79
2023-01-25T14:47:30.220Z,0.77
2023-01-25T14:50:40.029Z,0.77
2023-01-25T14:53:47.107Z,0.69
2023-01-25T14:56:52.721Z,0.62
2023-01-25T14:59:56.506Z,0.62
2023-01-25T15:03:01.009Z,0.64
2023-01-25T15:06:04.926Z,0.59
2023-01-25T15:09:32.106Z,0.54
2023-01-25T15:12:34.971Z,0.46
2023-01-25T15:15:59.817Z,0.44
2023-01-25T15:19:03.326Z,0.46
2023-01-25T15:22:08.776Z,0.43
2023-01-25T15:25:15.688Z,0.41
2023-01-25T15:28:34.641Z,0.39
2023-01-25T15:31:38.428Z,0.37
2023-01-25T15:34:41.410Z,0.35
2023-01-25T15:37:44.735Z,0.39
2023-01-25T15:40:48.051Z,0.44
2023-01-25T15:43:58.424Z,0.53
2023-01-25T15:47:07.189Z,0.57
2023-01-25T15:50:18.469Z,0.59
2023-01-25T15:53:21.495Z,0.66
2023-01-25T15:56:30.404Z,0.68
2023-01-25T15:59:33.480Z,0.77
2023-01-25T16:02:36.403Z,0.88
2023-01-25T16:05:39.404Z,0.96
2023-01-25T16:08:42.592Z,0.99
2023-01-25T16:11:46.395Z,1.13
2023-01-25T16:14:49.488Z,1.22
2023-01-25T16:17:52.217Z,1.26
2023-01-25T16:20:54.961Z,1.33
2023-01-25T16:23:57.890Z,1.39
2023-01-25T16:27:01.298Z,1.13
2023-01-25T16:30:05.123Z,0.99
2023-01-25T16:33:08.528Z,0.71
2023-01-25T16:36:16.728Z,0.62
2023-01-25T16:39:22.662Z,0.59
2023-01-25T16:42:25.376Z,0.50
2023-01-25T16:45:29.223Z,0.45
2023-01-25T16:48:32.429Z,0.45
2023-01-25T16:51:37.135Z,0.21
2023-01-25T16:54:40.108Z,0.15
2023-01-25T16:57:45.449Z,0.12
2023-01-25T17:00:48.465Z,0.11
2023-01-25T17:03:52.986Z,0.07
2023-01-25T17:06:59.367Z,0.10
2023-01-25T17:10:04.442Z,0.19
2023-01-25T17:13:09.369Z,0.19
2023-01-25T17:16:12.146Z,0.21
2023-01-25T17:19:16.704Z,0.26
2023-01-25T17:22:19.710Z,0.28
2023-01-25T17:25:23.625Z,0.29
2023-01-25T17:28:27.667Z,0.20
2023-01-25T17:31:34.995Z,0.28
2023-01-25T17:34:38.160Z,0.28
2023-01-25T17:37:41.639Z,0.52
2023-01-25T17:40:44.869Z,0.63
2023-01-25T17:43:55.310Z,0.67
2023-01-25T17:46:59.570Z,0.49
2023-01-25T17:50:02.766Z,0.55
2023-01-25T17:53:07.046Z,0.62
2023-01-25T17:56:11.959Z,0.53
2023-01-25T17:59:14.911Z,0.54
2023-01-25T18:02:18.559Z,0.51
2023-01-25T18:05:21.933Z,0.51
2023-01-25T18:08:25.541Z,0.49
2023-01-25T18:11:31.311Z,0.51
2023-01-25T18:14:35.620Z,0.40
2023-01-25T18:17:39.006Z,0.48
2023-01-25T18:20:42.416Z,0.47
2023-01-25T18:23:49.037Z,0.41
2023-01-25T18:26:52.661Z,0.44
2023-01-25T18:30:01.741Z,0.34
2023-01-25T18:33:05.937Z,0.41
2023-01-25T18:36:10.139Z,0.20
2023-01-25T18:39:13.284Z,0.19
2023-01-25T18:42:17.153Z,0.03
2023-01-25T18:45:24.512Z,0.10
2023-01-25T18:48:31.164Z,0.26
2023-01-25T18:51:38.924Z,0.16
2023-01-25T18:54:49.887Z,0.11
2023-01-25T18:57:53.478Z,0.21
2023-01-25T19:01:26.345Z,0.25
2023-01-25T19:04:31.087Z,0.32
2023-01-25T19:07:34.837Z,0.27
2023-01-25T19:10:38.272Z,0.27
2023-01-25T19:13:43.164Z,0.23
2023-01-25T19:16:46.680Z,0.30
2023-01-25T19:19:49.519Z,0.37
2023-01-25T19:22:54.125Z,0.37
2023-01-25T19:25:56.941Z,0.55
2023-01-25T19:28:59.850Z,0.62
2023-01-25T19:32:02.791Z,0.58
2023-01-25T19:35:08.605Z,0.63
2023-01-25T19:38:11.845Z,0.68
2023-01-25T19:41:17.184Z,0.76
2023-01-25T19:44:20.833Z,0.82
2023-01-25T19:47:23.729Z,0.89
2023-01-25T19:50:27.068Z,0.86
2023-01-25T19:53:30.522Z,0.64
2023-01-25T19:56:44.128Z,0.57
2023-01-25T19:59:48.213Z,0.48
2023-01-25T20:02:52.389Z,0.51
2023-01-25T20:06:00.530Z,0.55
2023-01-25T20:09:04.135Z,0.56
2023-01-25T20:12:09.375Z,0.44
2023-01-25T20:15:14.398Z,0.37
2023-01-25T20:18:17.993Z,0.52
2023-01-25T20:21:22.686Z,0.58
2023-01-25T20:24:26.759Z,0.49
2023-01-25T20:27:29.771Z,0.52
2023-01-25T20:30:34.512Z,0.52
2023-01-25T20:33:37.556Z,0.49
2023-01-25T20:36:41.693Z,0.52
2023-01-25T20:39:44.398Z,0.47
2023-01-25T20:42:48.029Z,0.40
2023-01-25T20:45:55.279Z,0.43
2023-01-25T20:48:58.742Z,0.45
2023-01-25T20:52:02.011Z,0.41
2023-01-25T20:55:05.659Z,0.37
2023-01-25T20:58:11.944Z,0.39
2023-01-25T21:01:17.389Z,0.38
2023-01-25T21:04:20.255Z,0.44
2023-01-25T21:07:23.207Z,0.49
2023-01-25T21:10:26.198Z,0.42
2023-01-25T21:13:29.730Z,0.53
2023-01-25T21:16:32.491Z,0.35
2023-01-25T21:19:36.068Z,0.53
2023-01-25T21:22:39.194Z,0.62
2023-01-25T21:25:42.606Z,0.70
2023-01-25T21:28:46.338Z,0.74
2023-01-25T21:31:51.297Z,0.63
2023-01-25T21:34:54.046Z,0.67
2023-01-25T21:37:56.929Z,0.69
2023-01-25T21:41:03.988Z,0.58
2023-01-25T21:44:25.296Z,0.77
2023-01-25T21:47:31.474Z,0.68
2023-01-25T21:50:53.131Z,0.64
2023-01-25T21:53:55.763Z,0.55
2023-01-25T21:56:59.999Z,0.42
2023-01-25T22:00:04.765Z,0.61
2023-01-25T22:03:07.432Z,0.47
2023-01-25T22:06:10.118Z,0.35
2023-01-25T22:09:14.447Z,0.42
2023-01-25T22:12:17.476Z,0.36
2023-01-25T22:15:20.771Z,0.31
2023-01-25T22:18:23.631Z,0.32
2023-01-25T22:21:32.349Z,0.39
2023-01-25T22:24:35.089Z,0.45
2023-01-25T22:27:47.198Z,0.62
2023-01-25T22:30:50.633Z,0.68
2023-01-25T22:33:54.341Z,0.76
2023-01-25T22:36:57.431Z,0.70
2023-01-25T22:40:00.239Z,0.73
2023-01-25T22:43:03.477Z,0.85
2023-01-25T22:46:07.777Z,0.82
2023-01-25T22:49:10.525Z,0.80
2023-01-25T22:52:13.268Z,0.95
2023-01-25T22:55:16.000Z,1.00
2023-01-25T22:58:19.003Z,1.02
2023-01-25T23:01:26.993Z,1.06
2023-01-25T23:04:30.771Z,1.09
2023-01-25T23:07:35.145Z,0.99
2023-01-25T23:10:37.873Z,0.90
2023-01-25T23:13:41.303Z,1.09
2023-01-25T23:16:45.141Z,1.11
2023-01-25T23:19:47.796Z,0.94
2023-01-25T23:22:51.649Z,0.92
2023-01-25T23:25:54.376Z,1.04
2023-01-25T23:28:58.264Z,1.09
2023-01-25T23:32:00.933Z,0.95
2023-01-25T23:35:03.920Z,0.90
2023-01-25T23:38:15.610Z,0.90
2023-01-25T23:41:19.977Z,0.76
2023-01-25T23:44:22.595Z,0.76
2023-01-25T23:47:25.210Z,0.68
2023-01-25T23:50:27.987Z,0.72
2023-01-25T23:53:33.941Z,0.70
2023-01-25T23:56:36.620Z,0.74
2023-01-25T23:59:39.320Z,0.76
